Time;durP1;ratioP1;P1;durP2;ratioP2;P2;SDS_P1;SDS_P2;PMS_P1;PMS_P2;Temp;Humidity;BMP_temperature;BMP_pressure;BME280_temperature;BME280_humidity;BME280_pressure;Samples;Min_cycle;Max_cycle;Signal;HPM_P1;HPM_P2
2022/03/01 00:02:05;;;;;;;8.20;4.83;;;;;;;-1.99;100.00;101412.50;5013534;28;20464;-71
2022/03/01 00:04:30;;;;;;;6.57;4.07;;;;;;;-1.83;100.00;101446.22;5012971;28;20815;-74
2022/03/01 00:06:56;;;;;;;6.40;4.53;;;;;;;-1.87;100.00;101460.94;5013206;28;20041;-72
2022/03/01 00:09:22;;;;;;;6.10;4.40;;;;;;;-1.97;100.00;101461.63;4995785;28;20473;-73
2022/03/01 00:11:47;;;;;;;5.57;4.07;;;;;;;-2.13;100.00;101444.88;5011729;28;20037;-72
2022/03/01 00:14:13;;;;;;;7.10;5.03;;;;;;;-1.92;100.00;101459.56;5013282;28;20052;-73
2022/03/01 00:16:38;;;;;;;7.50;5.10;;;;;;;-1.95;100.00;101455.09;5013213;28;20022;-73
2022/03/01 00:19:04;;;;;;;6.67;4.30;;;;;;;-2.10;100.00;101439.22;5012561;28;20037;-72
2022/03/01 00:21:29;;;;;;;6.83;4.00;;;;;;;-2.02;100.00;101457.72;5013166;28;20034;-75
2022/03/01 00:23:56;;;;;;;6.63;4.60;;;;;;;-2.00;100.00;101431.84;5013400;28;20133;-72
2022/03/01 00:26:21;;;;;;;7.03;4.30;;;;;;;-1.99;100.00;101438.69;5013524;28;20091;-72
2022/03/01 00:28:47;;;;;;;8.60;5.07;;;;;;;-1.99;100.00;101436.16;5013069;28;20037;-73
2022/03/01 00:31:13;;;;;;;7.77;4.60;;;;;;;-1.93;100.00;101440.97;5012921;28;20034;-75
2022/03/01 00:33:39;;;;;;;7.80;4.90;;;;;;;-2.00;100.00;101438.53;4995141;28;20103;-74
2022/03/01 00:36:05;;;;;;;8.67;4.47;;;;;;;-1.95;100.00;101444.97;5013254;28;20385;-71
2022/03/01 00:38:31;;;;;;;6.63;4.80;;;;;;;-1.94;100.00;101451.81;5012822;28;20034;-73
2022/03/01 00:40:57;;;;;;;6.73;4.43;;;;;;;-2.07;100.00;101449.66;5012832;28;20084;-73
2022/03/01 00:43:23;;;;;;;6.90;5.13;;;;;;;-1.92;100.00;101446.91;5012774;28;20523;-74
2022/03/01 00:45:52;;;;;;;7.60;4.87;;;;;;;-1.88;100.00;101436.34;5012958;28;20057;-75
2022/03/01 00:48:18;;;;;;;;;;;;;;;-1.87;100.00;101428.03;5012685;28;20092;-71
2022/03/01 00:50:44;;;;;;;10.07;6.10;;;;;;;-1.86;100.00;101423.13;5012342;28;20347;-74
2022/03/01 00:53:10;;;;;;;9.17;6.70;;;;;;;-1.76;100.00;101421.53;5012405;28;20405;-72
2022/03/01 00:55:35;;;;;;;10.23;7.33;;;;;;;-1.82;100.00;101416.72;5011699;28;20109;-75
2022/03/01 00:58:01;;;;;;;9.90;6.90;;;;;;;-1.91;100.00;101415.81;5012696;28;20030;-75
2022/03/01 01:00:28;;;;;;;11.87;7.60;;;;;;;-1.90;100.00;101426.09;5012312;28;20081;-74
2022/03/01 01:02:53;;;;;;;10.33;5.67;;;;;;;-1.88;100.00;101406.91;5012076;28;20126;-74
2022/03/01 01:05:19;;;;;;;8.00;5.80;;;;;;;-1.87;100.00;101410.31;5012253;28;20034;-73
2022/03/01 01:07:45;;;;;;;7.57;5.43;;;;;;;-1.76;100.00;101417.34;5011969;28;20105;-74
2022/03/01 01:10:11;;;;;;;9.07;5.03;;;;;;;-1.84;100.00;101391.28;4994807;28;20036;-74
2022/03/01 01:12:37;;;;;;;8.50;5.27;;;;;;;-1.73;100.00;101406.66;5012283;28;20029;-74
2022/03/01 01:15:05;;;;;;;9.03;5.23;;;;;;;-1.86;100.00;101387.69;4993967;28;20036;-75
2022/03/01 01:17:30;;;;;;;7.93;5.43;;;;;;;-1.79;100.00;101404.41;5011910;28;20034;-75
2022/03/01 01:19:56;;;;;;;8.10;5.27;;;;;;;-1.97;100.00;101373.03;5010732;28;20033;-75
2022/03/01 01:22:40;;;;;;;8.23;5.17;;;;;;;-1.83;100.00;101393.06;5012826;28;20073;-76
2022/03/01 01:25:23;;;;;;;37.50;19.97;;;;;;;-1.88;100.00;101385.75;5011568;28;20061;-75
2022/03/01 01:27:52;;;;;;;9.83;6.50;;;;;;;-1.83;100.00;101389.66;5012813;28;20084;-74
2022/03/01 01:30:20;;;;;;;;;;;;;;;-1.89;100.00;101391.56;5013206;28;20038;-76
2022/03/01 01:32:49;;;;;;;9.37;6.33;;;;;;;-1.94;100.00;101386.03;5013136;28;19913;-72
2022/03/01 01:35:16;;;;;;;25.52;17.52;;;;;;;-1.87;100.00;101397.66;5012837;28;20061;-72
2022/03/01 01:37:42;;;;;;;11.77;9.93;;;;;;;-1.77;100.00;101396.97;5012485;28;20544;-74
2022/03/01 01:40:11;;;;;;;11.60;6.93;;;;;;;-1.88;100.00;101378.16;5017510;28;20036;-71
2022/03/01 01:42:37;;;;;;;8.30;5.03;;;;;;;-1.90;100.00;101387.25;5009781;28;20037;-73
2022/03/01 01:45:04;;;;;;;9.33;5.97;;;;;;;-1.90;100.00;101390.66;5012296;28;20428;-73
2022/03/01 01:47:29;;;;;;;8.03;4.77;;;;;;;-2.00;100.00;101381.22;5012197;28;20559;-73
2022/03/01 01:49:55;;;;;;;8.70;5.03;;;;;;;-1.97;100.00;101384.09;5011825;28;20117;-73
2022/03/01 01:52:20;;;;;;;6.67;4.77;;;;;;;-1.92;100.00;101402.25;5011976;28;20025;-73
2022/03/01 01:54:46;;;;;;;8.57;4.90;;;;;;;-1.92;100.00;101401.34;4994157;28;20034;-72
2022/03/01 01:57:16;;;;;;;8.33;6.17;;;;;;;-1.91;100.00;101400.63;5011672;28;20116;-73
2022/03/01 01:59:42;;;;;;;8.77;5.03;;;;;;;-1.98;100.00;101368.75;5012133;28;20040;-73
2022/03/01 02:02:13;;;;;;;7.97;5.20;;;;;;;-1.80;100.00;101390.84;5010838;28;20038;-73
2022/03/01 02:04:39;;;;;;;7.37;4.97;;;;;;;-1.81;100.00;101383.09;5009977;28;20551;-73
2022/03/01 02:07:05;;;;;;;7.77;5.30;;;;;;;-1.81;100.00;101378.94;4993734;28;20042;-73
2022/03/01 02:09:30;;;;;;;7.10;4.57;;;;;;;-1.94;100.00;101348.06;5009957;28;20468;-73
2022/03/01 02:11:56;;;;;;;7.97;4.90;;;;;;;-1.95;100.00;101371.56;5010856;28;20033;-72
2022/03/01 02:14:21;;;;;;;9.83;6.17;;;;;;;-1.92;100.00;101373.53;5010948;28;20057;-72
2022/03/01 02:16:48;;;;;;;8.37;5.20;;;;;;;-1.89;100.00;101377.25;4992998;28;20037;-73
2022/03/01 02:19:14;;;;;;;6.30;4.23;;;;;;;-2.17;100.00;101369.41;5010683;28;20034;-72
2022/03/01 02:21:50;;;;;;;7.70;4.77;;;;;;;-2.42;100.00;101335.63;5010989;28;20042;-73
2022/03/01 02:24:17;;;;;;;8.53;5.93;;;;;;;-2.26;100.00;101350.75;4993116;28;20057;-73
2022/03/01 02:26:43;;;;;;;9.47;8.27;;;;;;;-2.01;100.00;101360.84;4992687;28;20045;-74
2022/03/01 02:29:08;;;;;;;8.90;5.47;;;;;;;-2.22;100.00;101345.25;5011094;28;20030;-73
2022/03/01 02:31:34;;;;;;;10.83;5.70;;;;;;;-2.14;100.00;101361.22;4959744;28;20492;-73
2022/03/01 02:34:00;;;;;;;7.50;5.00;;;;;;;-2.30;100.00;101362.19;4993558;28;20037;-73
2022/03/01 02:36:25;;;;;;;7.53;5.00;;;;;;;-2.34;100.00;101352.50;4975797;28;20048;-74
2022/03/01 02:38:51;;;;;;;8.93;5.50;;;;;;;-2.29;100.00;101368.16;5011146;28;20026;-73
2022/03/01 02:41:16;;;;;;;9.90;5.37;;;;;;;-2.32;100.00;101358.63;5010842;28;20477;-73
2022/03/01 02:43:42;;;;;;;8.33;5.23;;;;;;;-2.28;100.00;101359.78;5010913;28;20030;-76
2022/03/01 02:46:07;;;;;;;8.33;5.37;;;;;;;-2.26;100.00;101358.34;5009888;28;20025;-73
2022/03/01 02:48:33;;;;;;;8.20;5.87;;;;;;;-2.20;100.00;101353.91;5010920;28;20030;-72
2022/03/01 02:50:58;;;;;;;7.70;5.07;;;;;;;-2.20;100.00;101356.44;5010729;28;20026;-72
2022/03/01 02:53:24;;;;;;;8.93;5.30;;;;;;;-2.18;100.00;101332.19;5011164;28;20067;-73
2022/03/01 02:55:49;;;;;;;9.10;5.50;;;;;;;-2.03;100.00;101349.66;5009870;28;20033;-72
2022/03/01 02:58:16;;;;;;;9.30;5.50;;;;;;;-2.01;100.00;101353.25;5011098;28;20056;-72
2022/03/01 03:00:44;;;;;;;34.47;17.87;;;;;;;-1.97;100.00;101357.88;5010470;28;20037;-72
2022/03/01 03:03:13;;;;;;;9.13;6.40;;;;;;;-1.89;100.00;101357.00;5010632;28;20026;-71
2022/03/01 03:05:38;;;;;;;8.85;6.47;;;;;;;-1.98;100.00;101339.28;5010663;28;20022;-73
2022/03/01 03:08:04;;;;;;;12.87;10.20;;;;;;;-1.87;100.00;101353.00;5009474;28;20030;-72
2022/03/01 03:10:32;;;;;;;46.33;34.70;;;;;;;-1.89;100.00;101354.47;5009433;28;20025;-71
2022/03/01 03:12:58;;;;;;;24.10;18.73;;;;;;;-1.93;100.00;101351.47;5008170;28;20072;-72
2022/03/01 03:15:23;;;;;;;19.90;12.83;;;;;;;-1.99;100.00;101356.84;5009071;28;20101;-72
2022/03/01 03:17:49;;;;;;;9.17;6.00;;;;;;;-2.02;100.00;101361.56;5009004;28;20116;-73
2022/03/01 03:20:14;;;;;;;9.27;5.40;;;;;;;-2.37;100.00;101299.06;5008089;28;20510;-72
2022/03/01 03:22:40;;;;;;;10.13;6.17;;;;;;;-2.00;100.00;101350.84;5010759;28;20576;-73
2022/03/01 03:25:06;;;;;;;10.17;5.60;;;;;;;-1.99;100.00;101352.66;5009819;28;20060;-72
2022/03/01 03:27:31;;;;;;;8.80;5.73;;;;;;;-1.88;100.00;101356.28;5008067;28;20508;-73
2022/03/01 03:29:57;;;;;;;9.03;5.30;;;;;;;-2.44;100.00;101267.22;5010734;28;20058;-73
2022/03/01 03:32:22;;;;;;;9.07;6.03;;;;;;;-1.99;100.00;101355.19;5009396;28;20476;-72
2022/03/01 03:34:48;;;;;;;8.70;5.97;;;;;;;-1.84;100.00;101350.78;5008836;28;20030;-72
2022/03/01 03:37:14;;;;;;;8.77;5.93;;;;;;;-1.81;100.00;101353.63;5010551;28;20044;-72
2022/03/01 03:39:39;;;;;;;9.57;5.93;;;;;;;-1.76;100.00;101358.25;5009934;28;20037;-71
2022/03/01 03:42:04;;;;;;;8.30;5.33;;;;;;;-1.74;100.00;101346.66;5010209;28;20037;-72
2022/03/01 03:44:30;;;;;;;8.20;5.33;;;;;;;-1.83;100.00;101347.50;5010237;28;20113;-75
2022/03/01 03:46:56;;;;;;;9.50;5.63;;;;;;;-2.10;100.00;101305.13;5010365;28;20037;-74
2022/03/01 03:49:22;;;;;;;11.33;6.90;;;;;;;-2.00;100.00;101304.44;5010264;28;20034;-71
2022/03/01 03:51:48;;;;;;;8.83;5.67;;;;;;;-1.68;100.00;101365.00;5009362;28;20025;-74
2022/03/01 03:54:13;;;;;;;15.70;12.77;;;;;;;-1.68;100.00;101359.94;5009902;28;20037;-73
2022/03/01 03:56:39;;;;;;;34.97;26.77;;;;;;;-1.97;100.00;101299.66;5010020;28;20034;-74
2022/03/01 03:59:07;;;;;;;16.90;13.53;;;;;;;-1.60;100.00;101366.63;5009495;28;20045;-74
2022/03/01 04:01:33;;;;;;;16.30;11.03;;;;;;;-1.80;100.00;101327.56;5007975;28;20042;-73
2022/03/01 04:04:00;;;;;;;11.83;8.40;;;;;;;-1.65;100.00;101350.09;5007921;28;20045;-74
2022/03/01 04:06:26;;;;;;;13.90;9.43;;;;;;;-1.64;100.00;101336.69;5009752;28;20088;-73
2022/03/01 04:08:52;;;;;;;9.83;6.67;;;;;;;-1.84;100.00;101302.69;5009898;28;20432;-75
2022/03/01 04:11:17;;;;;;;10.63;6.27;;;;;;;-1.70;100.00;101347.09;5009893;28;20484;-73
2022/03/01 04:13:43;;;;;;;11.50;6.70;;;;;;;-1.71;100.00;101355.41;5007356;28;20038;-74
2022/03/01 04:16:08;;;;;;;11.53;6.70;;;;;;;-1.77;100.00;101348.84;4989466;28;20030;-74
2022/03/01 04:18:34;;;;;;;10.07;6.53;;;;;;;-1.84;100.00;101333.06;4989803;28;20061;-76
2022/03/01 04:20:59;;;;;;;10.10;6.90;;;;;;;-1.77;100.00;101349.75;4971981;28;20520;-74
2022/03/01 04:23:24;;;;;;;9.53;6.57;;;;;;;-2.00;100.00;101315.44;4989630;28;20054;-74
2022/03/01 04:25:50;;;;;;;10.87;7.27;;;;;;;-1.90;100.00;101334.97;4989111;28;20031;-73
2022/03/01 04:28:15;;;;;;;9.60;6.50;;;;;;;-1.71;100.00;101352.00;4990484;28;20026;-73
2022/03/01 04:30:41;;;;;;;10.63;7.23;;;;;;;-1.79;100.00;101347.06;4993339;28;20058;-75
2022/03/01 04:33:06;;;;;;;11.70;7.43;;;;;;;-1.72;100.00;101337.56;4993290;28;20038;-74
2022/03/01 04:35:32;;;;;;;10.50;7.53;;;;;;;-1.74;100.00;101326.41;4994193;28;20117;-75
2022/03/01 04:37:58;;;;;;;12.20;8.80;;;;;;;-1.68;100.00;101339.69;4993654;28;20031;-75
2022/03/01 04:40:23;;;;;;;21.30;13.70;;;;;;;-1.95;100.00;101286.41;4993098;28;20428;-75
2022/03/01 04:42:49;;;;;;;24.50;19.60;;;;;;;-1.63;100.00;101331.78;5004469;28;20037;-78
2022/03/01 04:45:16;;;;;;;16.80;11.70;;;;;;;-1.53;100.00;101326.00;5012030;28;20041;-77
2022/03/01 04:47:42;;;;;;;17.00;8.00;;;;;;;-1.51;100.00;101318.53;5012427;28;20037;-77
2022/03/01 04:50:08;;;;;;;13.03;8.40;;;;;;;-1.34;100.00;101335.41;5012711;28;20040;-76
2022/03/01 04:52:34;;;;;;;12.00;7.83;;;;;;;-1.34;100.00;101330.34;5012885;28;20080;-76
2022/03/01 04:54:59;;;;;;;15.60;9.10;;;;;;;-1.24;100.00;101340.63;5012662;28;20026;-77
2022/03/01 04:57:25;;;;;;;37.13;15.63;;;;;;;-1.18;100.00;101342.88;5012453;28;20026;-76
2022/03/01 04:59:50;;;;;;;37.63;13.87;;;;;;;-1.15;100.00;101354.22;5012888;28;20025;-76
2022/03/01 05:02:16;;;;;;;33.23;13.27;;;;;;;-1.15;100.00;101345.69;5011391;28;20476;-76
2022/03/01 05:04:41;;;;;;;19.47;11.37;;;;;;;-1.24;100.00;101333.03;5011895;28;20029;-74
2022/03/01 05:07:08;;;;;;;22.77;11.73;;;;;;;-1.14;100.00;101350.03;5011880;28;20088;-74
2022/03/01 05:09:34;;;;;;;20.63;10.43;;;;;;;-1.21;100.00;101348.53;5011414;28;20068;-74
2022/03/01 05:11:59;;;;;;;18.00;9.90;;;;;;;-1.20;100.00;101355.38;5011886;28;20026;-74
2022/03/01 05:14:25;;;;;;;14.27;9.17;;;;;;;-1.50;100.00;101315.28;5011747;28;20105;-73
2022/03/01 05:16:50;;;;;;;12.90;8.53;;;;;;;-1.40;100.00;101348.34;5019607;28;20445;-74
2022/03/01 05:19:16;;;;;;;13.53;8.73;;;;;;;-1.28;100.00;101356.28;5010679;28;20041;-74
2022/03/01 05:21:42;;;;;;;12.77;8.10;;;;;;;-1.32;100.00;101361.78;5031135;28;20044;-74
2022/03/01 05:24:07;;;;;;;13.20;8.77;;;;;;;-1.36;100.00;101358.06;5031350;28;20144;-75
2022/03/01 05:26:33;;;;;;;13.40;8.17;;;;;;;-1.23;100.00;101382.06;5018461;28;20034;-75
2022/03/01 05:28:59;;;;;;;15.37;9.00;;;;;;;-1.47;100.00;101354.47;5012225;28;20034;-74
2022/03/01 05:31:26;;;;;;;15.90;9.00;;;;;;;-1.59;100.00;101332.09;5025721;28;20029;-75
2022/03/01 05:33:52;;;;;;;13.07;7.90;;;;;;;-1.25;100.00;101396.22;5021174;28;20113;-75
2022/03/01 05:36:18;;;;;;;14.30;8.60;;;;;;;-1.20;100.00;101387.44;5000698;28;20073;-75
2022/03/01 05:38:44;;;;;;;16.27;9.37;;;;;;;-1.10;100.00;101400.25;5022334;28;20029;-75
2022/03/01 05:41:10;;;;;;;21.40;10.97;;;;;;;-1.15;100.00;101392.22;5017305;28;20037;-71
2022/03/01 05:43:37;;;;;;;21.97;11.93;;;;;;;-1.01;100.00;101402.78;5024723;28;20148;-72
2022/03/01 05:46:05;;;;;;;19.40;11.40;;;;;;;-0.82;100.00;101414.00;5013050;28;20488;-72
2022/03/01 05:48:31;;;;;;;20.93;10.87;;;;;;;-0.85;100.00;101405.19;5011812;28;20044;-76
2022/03/01 05:50:56;;;;;;;17.03;9.83;;;;;;;-0.71;100.00;101416.69;5012284;28;20045;-73
2022/03/01 05:53:21;;;;;;;14.00;9.47;;;;;;;-0.67;100.00;101409.53;5011515;28;20065;-73
2022/03/01 05:55:47;;;;;;;16.70;9.57;;;;;;;-0.76;100.00;101397.59;5011127;28;20037;-73
2022/03/01 05:58:13;;;;;;;20.13;10.90;;;;;;;-0.69;100.00;101400.88;5011921;28;20033;-72
2022/03/01 06:00:38;;;;;;;18.70;10.10;;;;;;;-0.62;100.00;101404.91;5011120;28;20026;-73
2022/03/01 06:03:04;;;;;;;16.27;9.53;;;;;;;-0.57;100.00;101415.50;4983063;28;20537;-72
2022/03/01 06:05:30;;;;;;;32.57;27.30;;;;;;;-0.53;100.00;101425.19;5006582;28;20032;-73
2022/03/01 06:07:57;;;;;;;20.17;17.27;;;;;;;-0.51;100.00;101421.19;5011189;28;20026;-72
2022/03/01 06:10:24;;;;;;;15.53;9.30;;;;;;;-0.54;100.00;101424.28;5011537;28;20030;-73
2022/03/01 06:12:49;;;;;;;11.07;8.10;;;;;;;-0.58;100.00;101422.19;5011482;28;20084;-75
2022/03/01 06:15:15;;;;;;;11.07;7.67;;;;;;;-0.71;100.00;101414.16;5010492;28;20033;-74
2022/03/01 06:17:40;;;;;;;12.97;8.40;;;;;;;-0.66;100.00;101428.19;5025564;28;20025;-74
2022/03/01 06:20:08;;;;;;;11.80;8.30;;;;;;;-0.71;100.00;101429.34;5023286;28;20032;-72
2022/03/01 06:22:34;;;;;;;12.20;8.67;;;;;;;-0.85;100.00;101398.50;5020009;28;20038;-73
2022/03/01 06:25:00;;;;;;;14.90;8.87;;;;;;;-0.69;100.00;101446.50;5020843;28;20107;-73
2022/03/01 06:27:25;;;;;;;12.83;7.47;;;;;;;-0.60;100.00;101446.50;5021372;28;20044;-73
2022/03/01 06:29:51;;;;;;;11.40;7.40;;;;;;;-0.57;100.00;101440.88;5001437;28;20045;-72
2022/03/01 06:32:17;;;;;;;15.30;9.67;;;;;;;-0.62;100.00;101445.50;5021614;28;20108;-73
2022/03/01 06:34:42;;;;;;;15.07;10.73;;;;;;;-0.66;100.00;101436.69;5019737;28;20117;-73
2022/03/01 06:37:12;;;;;;;19.67;11.97;;;;;;;-0.69;100.00;101426.22;5019704;28;20079;-74
2022/03/01 06:39:42;;;;;;;13.33;9.30;;;;;;;-0.59;100.00;101428.00;5017428;28;20025;-74
2022/03/01 06:42:08;;;;;;;13.02;8.90;;;;;;;-0.62;100.00;101404.91;5000590;28;20033;-74
2022/03/01 06:44:35;;;;;;;11.67;7.47;;;;;;;-0.36;100.00;101439.50;5020917;28;20084;-73
2022/03/01 06:47:00;;;;;;;10.13;6.93;;;;;;;-0.41;100.00;101426.38;5018811;28;20026;-74
2022/03/01 06:49:27;;;;;;;10.43;7.37;;;;;;;-0.28;100.00;101446.19;5018773;28;20045;-76
2022/03/01 06:51:52;;;;;;;16.10;11.97;;;;;;;-0.26;100.00;101438.72;4983486;28;20503;-74
2022/03/01 06:54:17;;;;;;;19.60;14.87;;;;;;;-0.62;100.00;101392.22;5020098;28;20029;-73
2022/03/01 06:56:43;;;;;;;19.50;14.27;;;;;;;-0.31;100.00;101430.69;5018719;28;20030;-73
2022/03/01 06:59:09;;;;;;;18.07;12.30;;;;;;;-0.26;100.00;101439.63;4986157;28;20037;-74
2022/03/01 07:01:34;;;;;;;13.67;10.27;;;;;;;-0.11;100.00;101454.53;5020379;28;20648;-73
2022/03/01 07:04:00;;;;;;;17.90;11.33;;;;;;;-0.12;100.00;101440.06;5002118;28;20554;-72
2022/03/01 07:06:25;;;;;;;13.23;10.10;;;;;;;-0.08;100.00;101450.63;5003127;28;20033;-73
2022/03/01 07:08:51;;;;;;;12.63;8.50;;;;;;;-0.40;100.00;101397.72;5019818;28;20036;-73
2022/03/01 07:11:16;;;;;;;11.20;8.47;;;;;;;-0.09;100.00;101461.53;5019632;28;20033;-73
2022/03/01 07:13:42;;;;;;;11.63;8.37;;;;;;;-0.03;100.00;101457.03;5020791;28;20042;-72
2022/03/01 07:16:08;;;;;;;9.83;7.40;;;;;;;0.07;100.00;101468.97;5009353;28;20456;-73
2022/03/01 07:18:33;;;;;;;16.60;9.90;;;;;;;0.10;100.00;101466.75;5010386;28;20109;-74
2022/03/01 07:20:59;;;;;;;13.87;8.73;;;;;;;0.09;100.00;101464.94;5019243;28;20443;-74
2022/03/01 07:23:24;;;;;;;13.80;8.80;;;;;;;0.18;100.00;101464.94;5012224;28;21080;-73
2022/03/01 07:25:52;;;;;;;12.83;8.37;;;;;;;0.14;100.00;101463.72;5012460;28;20038;-75
2022/03/01 07:28:18;;;;;;;11.67;8.17;;;;;;;0.15;100.00;101451.94;5009659;28;20117;-77
2022/03/01 07:30:43;;;;;;;12.57;8.50;;;;;;;-0.07;100.00;101424.50;5005295;28;20125;-77
2022/03/01 07:33:09;;;;;;;12.37;8.37;;;;;;;0.21;100.00;101459.22;5017693;28;20111;-77
2022/03/01 07:35:34;;;;;;;11.30;8.30;;;;;;;0.30;100.00;101465.19;5014955;28;20033;-77
2022/03/01 07:37:59;;;;;;;12.37;8.90;;;;;;;0.40;100.00;101478.00;4995918;28;20496;-77
2022/03/01 07:40:26;;;;;;;14.13;9.37;;;;;;;0.37;100.00;101442.13;5008015;28;20647;-77
2022/03/01 07:42:53;;;;;;;12.17;8.80;;;;;;;0.34;100.00;101425.72;4994442;28;20030;-75
2022/03/01 07:45:18;;;;;;;13.90;8.80;;;;;;;0.55;100.00;101457.31;4991295;28;20543;-76
2022/03/01 07:47:44;;;;;;;12.90;9.63;;;;;;;0.62;100.00;101454.59;5025057;28;20041;-78
2022/03/01 07:50:10;;;;;;;12.63;8.87;;;;;;;0.70;100.00;101465.47;5012851;28;20029;-78
2022/03/01 07:52:35;;;;;;;13.63;9.63;;;;;;;0.71;100.00;101460.53;5030526;28;20037;-77
2022/03/01 07:55:01;;;;;;;15.57;9.93;;;;;;;0.76;100.00;101466.03;5030619;28;20155;-78
2022/03/01 07:57:26;;;;;;;17.23;12.20;;;;;;;0.70;100.00;101452.75;5016693;28;20475;-78
2022/03/01 07:59:52;;;;;;;17.03;12.00;;;;;;;0.91;100.00;101467.44;5007397;28;20026;-78
2022/03/01 08:02:17;;;;;;;18.47;11.70;;;;;;;0.89;100.00;101450.28;5010373;28;20076;-78
2022/03/01 08:04:43;;;;;;;13.03;8.93;;;;;;;0.84;100.00;101429.50;4995555;28;20502;-75
2022/03/01 08:07:09;;;;;;;13.53;8.40;;;;;;;1.10;100.00;101461.50;5013975;28;20045;-77
2022/03/01 08:09:36;;;;;;;14.83;9.03;;;;;;;0.98;100.00;101450.22;4996238;28;20029;-78
2022/03/01 08:12:02;;;;;;;12.07;8.70;;;;;;;1.03;100.00;101467.66;5014007;28;20022;-80
2022/03/01 08:14:30;;;;;;;19.03;9.27;;;;;;;0.93;100.00;101449.78;5013884;28;20454;-78
2022/03/01 08:16:56;;;;;;;27.40;10.80;;;;;;;1.09;100.00;101475.84;4953467;29;20061;-78
2022/03/01 08:19:42;;;;;;;16.20;8.80;;;;;;;0.89;100.00;101447.72;4949020;28;20211;-79
2022/03/01 08:22:09;;;;;;;14.37;7.87;;;;;;;0.76;100.00;101410.09;4930878;29;20052;-78
2022/03/01 08:24:55;;;;;;;11.50;7.83;;;;;;;1.07;100.00;101467.22;4930918;29;20052;-78
2022/03/01 08:27:21;;;;;;;10.87;7.93;;;;;;;1.01;100.00;101460.66;4909759;29;20052;-76
2022/03/01 08:29:47;;;;;;;10.23;7.80;;;;;;;1.11;100.00;101470.94;4914608;29;20507;-74
2022/03/01 08:32:12;;;;;;;12.00;8.77;;;;;;;1.10;100.00;101457.31;4914610;29;20450;-77
2022/03/01 08:34:38;;;;;;;22.67;18.40;;;;;;;1.03;100.00;101469.31;4912918;29;20063;-77
2022/03/01 08:37:03;;;;;;;12.57;7.93;;;;;;;1.05;100.00;101455.13;4914021;29;20044;-77
2022/03/01 08:39:29;;;;;;;15.67;11.33;;;;;;;1.02;100.00;101460.78;4914803;29;20044;-77
2022/03/01 08:41:55;;;;;;;17.33;11.70;;;;;;;0.93;100.00;101447.25;4914859;29;20099;-77
2022/03/01 08:44:21;;;;;;;12.23;8.20;;;;;;;1.03;100.00;101464.25;4914611;29;20428;-77
2022/03/01 08:46:46;;;;;;;13.43;8.63;;;;;;;0.99;100.00;101442.72;4916886;28;20138;-77
2022/03/01 08:49:12;;;;;;;10.77;7.40;;;;;;;0.74;100.00;101404.88;4972116;28;20039;-77
2022/03/01 08:51:37;;;;;;;10.60;7.43;;;;;;;1.15;100.00;101454.28;4955548;28;20031;-77
2022/03/01 08:54:03;;;;;;;12.63;9.07;;;;;;;1.20;100.00;101461.56;4989189;28;20049;-77
2022/03/01 08:56:28;;;;;;;16.03;10.27;;;;;;;1.28;100.00;101475.91;4991317;28;20034;-77
2022/03/01 08:58:55;;;;;;;13.67;9.47;;;;;;;1.23;100.00;101448.25;4991354;28;20500;-78
2022/03/01 09:01:20;;;;;;;11.87;8.40;;;;;;;1.43;100.00;101456.03;4974939;28;20026;-77
2022/03/01 09:03:46;;;;;;;14.53;9.00;;;;;;;1.57;100.00;101461.44;5075077;22;20023;-75
2022/03/01 09:06:12;;;;;;;15.83;8.33;;;;;;;1.60;100.00;101464.25;4994446;28;20150;-75
2022/03/01 09:08:40;;;;;;;14.10;7.80;;;;;;;1.65;100.00;101470.66;4994352;28;20476;-75
2022/03/01 09:11:11;;;;;;;11.10;8.13;;;;;;;1.63;100.00;101461.97;4994305;28;20440;-75
2022/03/01 09:13:38;;;;;;;11.37;7.43;;;;;;;1.77;100.00;101474.28;4976714;28;20040;-75
2022/03/01 09:16:04;;;;;;;13.83;9.50;;;;;;;1.82;100.00;101472.16;4993261;28;20034;-78
2022/03/01 09:18:30;;;;;;;12.63;7.73;;;;;;;1.73;100.00;101450.97;4976626;28;20077;-74
2022/03/01 09:20:56;;;;;;;12.53;8.40;;;;;;;1.86;100.00;101450.41;4994023;28;20062;-75
2022/03/01 09:23:21;;;;;;;14.13;8.03;;;;;;;2.00;100.00;101454.16;4993682;28;20073;-78
2022/03/01 09:25:47;;;;;;;13.97;8.33;;;;;;;2.03;100.00;101456.94;4994104;28;20058;-75
2022/03/01 09:28:12;;;;;;;13.83;8.50;;;;;;;1.78;100.00;101416.59;4994310;28;20475;-78
2022/03/01 09:30:38;;;;;;;12.70;8.03;;;;;;;1.83;100.00;101457.75;4994065;28;20070;-76
2022/03/01 09:33:04;;;;;;;11.13;8.00;;;;;;;1.90;99.92;101455.00;4993927;28;20026;-77
2022/03/01 09:35:29;;;;;;;11.60;7.97;;;;;;;1.64;99.92;101423.03;4993603;28;20436;-78
2022/03/01 09:37:55;;;;;;;13.60;9.37;;;;;;;1.84;97.57;101457.00;4993732;28;20033;-77
2022/03/01 09:40:21;;;;;;;15.00;8.63;;;;;;;1.92;99.67;101446.72;4999165;28;20437;-75
2022/03/01 09:42:46;;;;;;;13.10;9.13;;;;;;;2.03;98.87;101455.31;5012986;28;20463;-75
2022/03/01 09:45:13;;;;;;;16.27;9.33;;;;;;;2.19;99.66;101454.97;5013310;28;20022;-75
2022/03/01 09:47:39;;;;;;;13.43;8.73;;;;;;;2.24;95.67;101446.09;5013173;28;20025;-76
2022/03/01 09:50:06;;;;;;;13.37;9.87;;;;;;;2.12;96.05;101419.56;5013017;28;20460;-75
2022/03/01 09:52:33;;;;;;;13.57;8.57;;;;;;;2.37;95.99;101453.13;4952015;29;20035;-74
2022/03/01 09:54:59;;;;;;;12.87;9.30;;;;;;;2.34;95.42;101429.91;4952227;29;20047;-77
2022/03/01 09:57:24;;;;;;;12.83;9.57;;;;;;;2.38;94.83;101431.97;4952152;29;20046;-77
2022/03/01 09:59:50;;;;;;;13.60;8.10;;;;;;;2.46;95.59;101441.94;4952247;29;20482;-74
2022/03/01 10:02:16;;;;;;;15.27;10.07;;;;;;;2.43;95.97;101447.66;4951870;29;20035;-77
2022/03/01 10:04:55;;;;;;;10.83;7.57;;;;;;;2.49;93.63;101443.06;4951690;29;20501;-75
2022/03/01 10:07:27;;;;;;;12.68;8.00;;;;;;;2.54;95.25;101440.91;4952093;29;20115;-75
2022/03/01 10:09:53;;;;;;;12.23;8.57;;;;;;;2.56;97.32;101447.03;4951929;29;20459;-75
2022/03/01 10:12:26;;;;;;;11.13;7.67;;;;;;;2.57;94.67;101448.84;4935830;29;20039;-74
2022/03/01 10:15:04;;;;;;;10.27;7.43;;;;;;;2.27;96.33;101430.16;4951624;29;20039;-78
2022/03/01 10:17:44;;;;;;;10.00;7.10;;;;;;;2.37;94.49;101439.50;4951721;29;20035;-75
2022/03/01 10:20:12;;;;;;;12.00;8.20;;;;;;;2.45;94.70;101443.56;4951659;29;20027;-77
2022/03/01 10:22:43;;;;;;;11.57;7.80;;;;;;;2.25;95.40;101399.44;4943224;28;20054;-78
2022/03/01 10:25:09;;;;;;;12.03;8.23;;;;;;;2.41;93.45;101437.31;5012911;28;20024;-75
2022/03/01 10:27:35;;;;;;;13.23;8.80;;;;;;;2.48;94.32;101438.75;5011813;28;20026;-75
2022/03/01 10:30:03;;;;;;;12.83;7.83;;;;;;;2.51;94.88;101440.66;5012280;28;20022;-75
2022/03/01 10:32:28;;;;;;;14.53;9.63;;;;;;;2.35;93.54;101420.63;5011999;28;20030;-75
2022/03/01 10:35:06;;;;;;;14.57;10.80;;;;;;;2.48;93.60;101436.22;5012272;28;20028;-74
2022/03/01 10:37:35;;;;;;;12.97;8.57;;;;;;;2.37;93.74;101414.91;5001137;28;20145;-78
2022/03/01 10:40:31;;;;;;;12.80;8.13;;;;;;;2.44;94.22;101436.69;4992724;28;20025;-75
2022/03/01 10:43:04;;;;;;;11.70;6.93;;;;;;;2.25;93.46;101376.50;4980824;28;20034;-74
2022/03/01 10:45:50;;;;;;;17.50;9.63;;;;;;;2.33;94.56;101378.81;4990012;28;21173;-75
2022/03/01 10:48:24;;;;;;;19.27;9.33;;;;;;;2.68;94.86;101431.88;4977331;28;20481;-77
2022/03/01 10:50:58;;;;;;;19.20;14.13;;;;;;;2.64;93.32;101422.19;4988130;28;20469;-74
2022/03/01 10:53:33;;;;;;;11.73;8.47;;;;;;;2.77;93.99;101419.00;4958980;28;20042;-75
2022/03/01 10:56:06;;;;;;;10.73;7.37;;;;;;;2.74;92.55;101415.44;4973493;28;20057;-75
2022/03/01 10:58:35;;;;;;;17.00;8.60;;;;;;;2.75;92.05;101414.69;4974580;28;20492;-73
2022/03/01 11:01:01;;;;;;;15.00;7.53;;;;;;;2.69;92.03;101419.28;4968489;28;20023;-75
2022/03/01 11:03:26;;;;;;;14.52;7.95;;;;;;;2.63;92.18;101422.94;4956522;28;20365;-73
2022/03/01 11:05:54;;;;;;;11.60;7.60;;;;;;;2.63;91.86;101408.56;4971736;28;20058;-73
2022/03/01 11:08:23;;;;;;;11.47;7.37;;;;;;;2.52;90.81;101396.56;4953261;28;20042;-73
2022/03/01 11:10:50;;;;;;;11.93;8.27;;;;;;;2.59;94.02;101399.75;4971450;28;20493;-72
2022/03/01 11:13:20;;;;;;;10.55;8.30;;;;;;;2.67;92.86;101408.06;4971032;28;20033;-71